createdAt,value
2019-05-02T00:00:25.167Z,35.19
2019-05-02T00:02:51.551Z,35.25
2019-05-02T00:05:17.882Z,35.46
2019-05-02T00:07:44.218Z,35.54
2019-05-02T00:10:10.592Z,35.67
2019-05-02T00:12:36.926Z,35.96
2019-05-02T00:15:03.559Z,35.97
2019-05-02T00:17:29.598Z,35.97
2019-05-02T00:19:55.957Z,36.00
2019-05-02T00:22:22.275Z,36.17
2019-05-02T00:24:48.642Z,36.42
2019-05-02T00:27:14.934Z,36.79
2019-05-02T00:32:07.597Z,37.00
2019-05-02T00:34:33.933Z,37.11
2019-05-02T00:37:00.270Z,37.61
2019-05-02T00:39:26.600Z,37.71
2019-05-02T00:41:52.963Z,38.11
2019-05-02T00:44:19.293Z,38.23
2019-05-02T00:46:45.614Z,38.57
2019-05-02T00:49:11.959Z,38.62
2019-05-02T00:51:38.296Z,38.64
2019-05-02T00:54:04.633Z,39.33
2019-05-02T00:56:30.967Z,39.31
2019-05-02T00:58:57.371Z,39.46
2019-05-02T01:01:24.232Z,39.29
2019-05-02T01:03:51.992Z,39.70
2019-05-02T01:06:16.427Z,39.68
2019-05-02T01:08:42.725Z,39.72
2019-05-02T01:11:09.056Z,40.30
2019-05-02T01:13:35.395Z,40.22
2019-05-02T01:16:01.722Z,40.12
2019-05-02T01:18:28.060Z,40.37
2019-05-02T01:20:58.234Z,40.43
2019-05-02T01:23:23.094Z,40.57
2019-05-02T01:25:52.427Z,40.83
2019-05-02T01:28:17.508Z,40.93
2019-05-02T01:30:42.463Z,41.16
2019-05-02T01:33:06.694Z,41.18
2019-05-02T01:35:32.772Z,41.12
2019-05-02T01:37:58.917Z,41.16
2019-05-02T01:40:25.288Z,41.03
2019-05-02T01:42:51.627Z,40.84
2019-05-02T01:47:44.308Z,40.77
2019-05-02T01:50:10.667Z,40.73
2019-05-02T01:52:37.036Z,40.63
2019-05-02T01:55:03.330Z,40.58
2019-05-02T01:57:29.657Z,40.54
2019-05-02T01:59:56.067Z,40.60
2019-05-02T02:02:22.395Z,40.60
2019-05-02T02:04:52.149Z,40.58
2019-05-02T02:09:43.952Z,40.54
2019-05-02T02:12:09.794Z,40.71
2019-05-02T02:14:34.177Z,41.02
2019-05-02T02:17:00.504Z,41.10
2019-05-02T02:19:26.845Z,41.17
2019-05-02T02:21:57.311Z,41.18
2019-05-02T02:24:21.160Z,41.34
2019-05-02T02:26:48.146Z,41.37
2019-05-02T02:29:12.209Z,41.34
2019-05-02T02:31:39.733Z,41.16
2019-05-02T02:34:04.888Z,41.17
2019-05-02T02:36:34.523Z,41.18
2019-05-02T02:38:57.574Z,41.34
2019-05-02T02:41:23.965Z,41.34
2019-05-02T02:43:54.732Z,41.60
2019-05-02T02:46:16.634Z,41.47
2019-05-02T02:51:09.311Z,41.53
2019-05-02T02:53:35.655Z,41.36
2019-05-02T02:56:03.907Z,41.36
2019-05-02T02:58:28.372Z,41.45
2019-05-02T03:00:54.714Z,41.39
2019-05-02T03:03:27.621Z,41.63
2019-05-02T03:05:47.432Z,41.70
2019-05-02T03:08:13.759Z,41.78
2019-05-02T03:10:45.121Z,42.10
2019-05-02T03:13:06.462Z,42.06
2019-05-02T03:15:32.806Z,42.05
2019-05-02T03:18:00.376Z,41.86
2019-05-02T03:20:25.515Z,41.81
2019-05-02T03:22:51.860Z,41.64
2019-05-02T03:25:26.971Z,41.47
2019-05-02T03:27:44.622Z,41.26
2019-05-02T03:30:29.776Z,41.30
2019-05-02T03:32:37.341Z,41.12
2019-05-02T03:35:03.721Z,41.54
2019-05-02T03:37:30.018Z,41.31
2019-05-02T03:39:57.831Z,41.57
2019-05-02T03:42:22.748Z,41.39
2019-05-02T03:44:55.759Z,41.34
2019-05-02T03:47:15.421Z,41.33
2019-05-02T03:49:48.573Z,41.27
2019-05-02T03:52:08.129Z,41.31
2019-05-02T03:54:34.421Z,41.16
2019-05-02T03:57:00.794Z,41.37
2019-05-02T04:01:53.481Z,41.30
2019-05-02T04:04:20.729Z,41.37
2019-05-02T04:06:46.192Z,41.21
2019-05-02T04:09:12.536Z,41.24
2019-05-02T04:11:40.915Z,41.37
2019-05-02T04:14:15.145Z,41.34
2019-05-02T04:16:31.588Z,41.36
2019-05-02T04:18:58.333Z,41.37
2019-05-02T04:21:26.173Z,41.35
2019-05-02T04:23:50.571Z,41.37
2019-05-02T04:26:16.923Z,41.34
2019-05-02T04:28:45.647Z,41.41
2019-05-02T04:31:09.618Z,41.56
2019-05-02T04:33:36.609Z,41.61
2019-05-02T04:36:13.436Z,41.70
2019-05-02T04:38:39.142Z,41.81
2019-05-02T04:40:54.999Z,42.21
2019-05-02T04:43:21.375Z,41.69
2019-05-02T04:45:55.990Z,41.58
2019-05-02T04:48:14.078Z,41.78
2019-05-02T04:50:40.413Z,41.70
2019-05-02T04:53:08.594Z,41.69
2019-05-02T04:55:33.552Z,41.61
2019-05-02T04:58:01.777Z,41.68
2019-05-02T05:00:28.379Z,41.59
2019-05-02T05:02:53.294Z,41.49
2019-05-02T05:05:25.769Z,41.34
2019-05-02T05:07:46.557Z,41.24
2019-05-02T05:10:11.212Z,41.15
2019-05-02T05:12:41.669Z,41.23
2019-05-02T05:15:03.873Z,41.26
2019-05-02T05:17:33.010Z,41.13
2019-05-02T05:19:57.361Z,41.07
2019-05-02T05:22:22.960Z,41.14
2019-05-02T05:27:18.957Z,40.52
2019-05-02T05:29:42.006Z,40.30
2019-05-02T05:32:10.191Z,40.50
2019-05-02T05:34:34.714Z,40.31
2019-05-02T05:37:03.791Z,40.50
2019-05-02T05:39:28.204Z,40.19
2019-05-02T05:41:53.697Z,40.02
2019-05-02T05:44:23.416Z,40.13
2019-05-02T05:46:49.298Z,39.99
2019-05-02T05:49:20.018Z,39.50
2019-05-02T05:51:39.420Z,39.67
2019-05-02T05:54:07.719Z,39.70
2019-05-02T05:56:39.728Z,39.58
2019-05-02T05:58:59.623Z,39.57
2019-05-02T06:01:32.372Z,39.68
2019-05-02T06:06:22.767Z,39.40
2019-05-02T06:08:49.127Z,39.25
2019-05-02T06:11:15.009Z,39.32
2019-05-02T06:13:38.205Z,38.95
2019-05-02T06:16:04.057Z,38.90
2019-05-02T06:18:30.392Z,38.70
2019-05-02T06:20:58.398Z,38.81
2019-05-02T06:23:25.327Z,38.64
2019-05-02T06:25:51.668Z,38.86
2019-05-02T06:28:17.991Z,38.35
2019-05-02T06:30:44.373Z,38.24
2019-05-02T06:33:10.707Z,38.01
2019-05-02T06:35:37.119Z,38.06
2019-05-02T06:38:03.467Z,37.88
2019-05-02T06:40:29.882Z,37.90
2019-05-02T06:42:56.201Z,37.70
2019-05-02T06:45:22.642Z,37.77
2019-05-02T06:50:15.318Z,37.52
2019-05-02T06:52:41.601Z,37.61
2019-05-02T06:55:07.920Z,37.42
2019-05-02T06:57:34.237Z,37.20
2019-05-02T07:00:00.639Z,37.07
2019-05-02T07:02:28.301Z,37.08
2019-05-02T07:04:54.727Z,37.08
2019-05-02T07:07:19.743Z,36.93
2019-05-02T07:12:14.817Z,36.67
2019-05-02T07:14:38.717Z,36.44
2019-05-02T07:17:05.833Z,36.64
2019-05-02T07:19:31.478Z,36.48
2019-05-02T07:21:58.550Z,36.29
2019-05-02T07:24:25.305Z,36.13
2019-05-02T07:26:52.100Z,36.20
2019-05-02T07:31:47.680Z,35.82
2019-05-02T07:34:13.007Z,35.79
2019-05-02T07:36:36.747Z,35.87
2019-05-02T07:39:05.115Z,36.01
2019-05-02T07:41:30.185Z,35.79
2019-05-02T07:43:56.246Z,35.75
2019-05-02T07:46:22.266Z,35.36
2019-05-02T07:48:48.963Z,35.37
2019-05-02T07:53:44.436Z,34.90
2019-05-02T07:56:06.826Z,34.92
2019-05-02T07:58:33.175Z,35.00
2019-05-02T08:00:59.544Z,34.89
2019-05-02T08:03:29.326Z,35.03
2019-05-02T08:05:54.463Z,34.85
2019-05-02T08:08:18.541Z,34.79
2019-05-02T08:10:44.880Z,35.20
2019-05-02T08:15:37.521Z,34.25
2019-05-02T08:18:03.879Z,34.33
2019-05-02T08:20:30.262Z,33.95
2019-05-02T08:22:56.634Z,34.39
2019-05-02T08:25:22.965Z,34.08
2019-05-02T08:27:49.297Z,33.92
2019-05-02T08:30:15.988Z,33.69
2019-05-02T08:32:42.313Z,34.18
2019-05-02T08:37:35.379Z,33.66
2019-05-02T08:40:05.409Z,33.52
2019-05-02T08:42:32.199Z,33.49
2019-05-02T08:44:56.233Z,33.46
2019-05-02T08:47:23.758Z,33.36
2019-05-02T08:49:49.395Z,33.15
2019-05-02T08:52:12.997Z,33.14
2019-05-02T08:54:39.331Z,33.06
2019-05-02T08:59:32.037Z,32.82
2019-05-02T09:01:58.373Z,33.01
2019-05-02T09:04:29.051Z,32.69
2019-05-02T09:06:53.209Z,32.54
2019-05-02T09:09:17.538Z,32.70
2019-05-02T09:11:48.788Z,32.61
2019-05-02T09:14:12.458Z,32.58
2019-05-02T09:16:36.520Z,32.65
2019-05-02T09:19:02.940Z,32.42
2019-05-02T09:21:34.228Z,32.52
2019-05-02T09:23:55.555Z,32.72
2019-05-02T09:26:33.261Z,32.50
2019-05-02T09:28:48.199Z,32.34
2019-05-02T09:31:14.588Z,32.39
2019-05-02T09:33:42.449Z,32.58
2019-05-02T09:36:07.257Z,32.91
2019-05-02T09:38:33.581Z,32.49
2019-05-02T09:41:13.827Z,32.14
2019-05-02T09:43:29.216Z,32.39
2019-05-02T09:45:52.631Z,32.03
2019-05-02T09:48:22.701Z,31.88
2019-05-02T09:50:45.316Z,32.19
2019-05-02T09:53:20.367Z,31.88
2019-05-02T09:55:42.322Z,31.88
2019-05-02T09:58:04.367Z,31.80
2019-05-02T10:00:32.367Z,31.69
2019-05-02T10:02:57.026Z,31.71
2019-05-02T10:05:23.360Z,31.41
2019-05-02T10:07:49.694Z,31.44
2019-05-02T10:10:16.018Z,31.36
2019-05-02T10:12:42.754Z,31.05
2019-05-02T10:15:08.698Z,31.43
2019-05-02T10:17:37.462Z,31.43
2019-05-02T10:22:32.317Z,30.94
2019-05-02T10:24:54.094Z,30.01
2019-05-02T10:27:21.671Z,31.22
2019-05-02T10:29:46.789Z,31.75
2019-05-02T10:32:16.663Z,30.89
2019-05-02T10:34:39.528Z,30.90
2019-05-02T10:37:05.919Z,30.87
2019-05-02T10:39:33.958Z,31.15
2019-05-02T10:41:58.546Z,30.99
2019-05-02T10:44:27.224Z,30.84
2019-05-02T10:46:52.322Z,30.82
2019-05-02T10:49:17.582Z,30.98
2019-05-02T10:51:49.383Z,30.73
2019-05-02T10:54:12.015Z,30.75
2019-05-02T10:56:36.627Z,30.94
2019-05-02T10:59:02.983Z,30.96
2019-05-02T11:01:29.319Z,31.26
2019-05-02T11:03:55.737Z,32.09
2019-05-02T11:06:22.336Z,31.93
2019-05-02T11:08:48.417Z,31.68
2019-05-02T11:11:14.764Z,31.67
2019-05-02T11:13:42.495Z,30.62
2019-05-02T11:16:07.490Z,31.14
2019-05-02T11:18:42.376Z,30.91
2019-05-02T11:21:04.363Z,31.46
2019-05-02T11:23:26.589Z,31.24
2019-05-02T11:25:52.943Z,30.72
2019-05-02T11:28:19.273Z,31.49
2019-05-02T11:30:45.670Z,32.11
2019-05-02T11:33:13.446Z,31.32
2019-05-02T11:38:14.075Z,30.87
2019-05-02T11:40:39.964Z,31.19
2019-05-02T11:43:06.898Z,30.77
2019-05-02T11:45:32.596Z,31.08
2019-05-02T11:48:03.394Z,30.82
2019-05-02T11:50:26.628Z,30.93
2019-05-02T11:52:52.313Z,30.65
2019-05-02T11:55:19.083Z,31.18
2019-05-02T11:57:44.329Z,31.23
2019-05-02T12:00:12.483Z,31.05
2019-05-02T12:02:37.032Z,30.70
2019-05-02T12:05:03.405Z,31.11
2019-05-02T12:07:29.750Z,31.03
2019-05-02T12:09:57.237Z,31.24
2019-05-02T12:12:22.728Z,30.95
2019-05-02T12:14:48.784Z,31.08
2019-05-02T12:17:15.158Z,30.79
2019-05-02T12:19:42.560Z,30.95
2019-05-02T12:22:12.767Z,30.85
2019-05-02T12:24:36.374Z,30.91
2019-05-02T12:27:02.429Z,30.77
2019-05-02T12:29:26.935Z,30.82
2019-05-02T12:31:56.413Z,30.88
2019-05-02T12:34:21.599Z,31.16
2019-05-02T12:36:45.910Z,31.29
2019-05-02T12:39:12.688Z,31.53
2019-05-02T12:41:38.669Z,31.47
2019-05-02T12:44:05.025Z,31.20
2019-05-02T12:46:31.847Z,31.27
2019-05-02T12:48:57.800Z,31.25
2019-05-02T12:51:24.186Z,31.31
2019-05-02T12:53:52.642Z,31.28
2019-05-02T12:58:43.246Z,31.20
2019-05-02T13:01:09.615Z,31.31
2019-05-02T13:03:35.943Z,31.16
2019-05-02T13:06:03.044Z,31.11
2019-05-02T13:08:28.682Z,30.91
2019-05-02T13:11:01.926Z,31.01
2019-05-02T13:13:21.815Z,30.98
2019-05-02T13:15:47.679Z,30.95
2019-05-02T13:20:41.752Z,30.96
2019-05-02T13:23:06.691Z,30.85
2019-05-02T13:25:36.922Z,30.95
2019-05-02T13:27:59.349Z,31.16
2019-05-02T13:30:25.728Z,30.98
2019-05-02T13:32:53.755Z,30.98
2019-05-02T13:35:18.402Z,30.29
2019-05-02T13:37:44.766Z,31.11
2019-05-02T13:40:12.009Z,31.13
2019-05-02T13:42:37.421Z,30.98
2019-05-02T13:45:03.744Z,31.01
2019-05-02T13:47:30.126Z,30.75
2019-05-02T13:50:00.483Z,30.62
2019-05-02T13:52:22.779Z,30.68
2019-05-02T13:54:49.103Z,30.61
2019-05-02T13:57:15.478Z,30.75
2019-05-02T13:59:41.813Z,30.69
2019-05-02T14:02:08.130Z,30.49
2019-05-02T14:04:34.467Z,30.31
2019-05-02T14:07:02.810Z,30.24
2019-05-02T14:11:53.614Z,29.79
2019-05-02T14:14:19.970Z,29.83
2019-05-02T14:16:46.325Z,29.95
2019-05-02T14:19:12.759Z,29.92
2019-05-02T14:21:39.131Z,29.98
2019-05-02T14:24:05.460Z,29.82
2019-05-02T14:26:33.219Z,30.01
2019-05-02T14:28:58.209Z,30.32
2019-05-02T14:33:52.369Z,30.03
2019-05-02T14:36:17.288Z,29.97
2019-05-02T14:38:43.607Z,29.85
2019-05-02T14:41:09.937Z,30.01
2019-05-02T14:43:38.253Z,29.72
2019-05-02T14:46:02.924Z,29.84
2019-05-02T14:48:28.993Z,30.03
2019-05-02T14:50:55.327Z,30.21
2019-05-02T14:53:25.336Z,30.50
2019-05-02T14:55:48.048Z,30.07
2019-05-02T14:58:14.386Z,30.11
2019-05-02T15:00:45.879Z,29.97
2019-05-02T15:03:07.045Z,29.73
2019-05-02T15:05:33.379Z,29.86
2019-05-02T15:08:02.513Z,30.10
2019-05-02T15:10:26.140Z,30.02
2019-05-02T15:12:59.778Z,29.86
2019-05-02T15:15:18.899Z,29.96
2019-05-02T15:17:45.275Z,29.59
2019-05-02T15:20:13.039Z,29.67
2019-05-02T15:22:37.934Z,30.01
2019-05-02T15:25:07.941Z,29.90
2019-05-02T15:27:40.211Z,29.88
2019-05-02T15:30:05.144Z,29.83
2019-05-02T15:32:25.418Z,30.12
2019-05-02T15:34:49.744Z,29.93
2019-05-02T15:37:16.941Z,29.24
2019-05-02T15:42:08.772Z,30.76
2019-05-02T15:47:04.582Z,30.74
2019-05-02T15:49:27.821Z,30.41
2019-05-02T15:51:54.150Z,30.59
2019-05-02T15:54:22.577Z,30.89
2019-05-02T15:56:52.555Z,29.97
2019-05-02T15:59:13.416Z,29.50
2019-05-02T16:01:41.257Z,30.11
2019-05-02T16:04:05.916Z,30.08
2019-05-02T16:06:33.918Z,30.13
2019-05-02T16:08:58.711Z,30.17
2019-05-02T16:11:25.054Z,29.94
2019-05-02T16:13:52.528Z,29.79
2019-05-02T16:16:17.735Z,29.78
2019-05-02T16:18:44.092Z,29.98
2019-05-02T16:21:11.913Z,29.87
2019-05-02T16:23:36.838Z,29.01
2019-05-02T16:26:05.894Z,29.61
2019-05-02T16:28:29.470Z,29.73
2019-05-02T16:30:55.882Z,29.95
2019-05-02T16:33:22.264Z,29.83
2019-05-02T16:35:52.855Z,30.00
2019-05-02T16:38:14.940Z,29.95
2019-05-02T16:40:41.918Z,29.76
2019-05-02T16:43:07.614Z,29.73
2019-05-02T16:45:33.953Z,30.03
2019-05-02T16:48:01.409Z,29.92
2019-05-02T16:50:27.656Z,29.42
2019-05-02T16:52:53.275Z,30.06
2019-05-02T16:55:21.072Z,29.74
2019-05-02T16:57:45.741Z,29.86
2019-05-02T17:00:12.071Z,29.84
2019-05-02T17:02:43.534Z,29.96
2019-05-02T17:05:08.299Z,30.24
2019-05-02T17:07:34.796Z,29.88
2019-05-02T17:09:57.453Z,29.83
2019-05-02T17:12:23.870Z,29.91
2019-05-02T17:14:51.567Z,29.97
2019-05-02T17:17:16.550Z,29.90
2019-05-02T17:19:42.918Z,29.90
2019-05-02T17:22:09.244Z,29.83
2019-05-02T17:24:35.567Z,29.74
2019-05-02T17:27:02.551Z,29.69
2019-05-02T17:29:28.331Z,29.68
2019-05-02T17:31:59.111Z,29.67
2019-05-02T17:34:23.066Z,29.61
2019-05-02T17:36:47.376Z,29.63
2019-05-02T17:39:13.695Z,29.66
2019-05-02T17:41:42.257Z,29.63
2019-05-02T17:44:06.367Z,29.59
2019-05-02T17:46:32.727Z,29.58
2019-05-02T17:48:59.058Z,29.56
2019-05-02T17:51:28.283Z,29.62
2019-05-02T17:53:52.366Z,29.53
2019-05-02T17:56:20.950Z,29.51
2019-05-02T17:58:53.031Z,29.53
2019-05-02T18:01:10.793Z,29.43
2019-05-02T18:03:37.123Z,29.44
2019-05-02T18:06:07.478Z,29.44
2019-05-02T18:08:29.822Z,29.41
2019-05-02T18:11:00.064Z,29.52
2019-05-02T18:13:22.871Z,29.36
2019-05-02T18:15:48.883Z,29.35
2019-05-02T18:18:15.216Z,29.44
2019-05-02T18:20:46.389Z,29.34
2019-05-02T18:23:07.891Z,29.37
2019-05-02T18:25:34.275Z,29.33
2019-05-02T18:28:02.284Z,29.38
2019-05-02T18:30:27.119Z,29.54
2019-05-02T18:32:57.725Z,29.53
2019-05-02T18:35:19.625Z,29.53
2019-05-02T18:37:46.941Z,29.52
2019-05-02T18:40:12.360Z,29.57
2019-05-02T18:42:38.741Z,29.63
2019-05-02T18:45:05.144Z,29.53
2019-05-02T18:47:33.358Z,29.59
2019-05-02T18:50:01.885Z,29.57
2019-05-02T18:52:35.714Z,29.61
2019-05-02T18:54:51.740Z,29.64
2019-05-02T18:57:17.076Z,29.63
2019-05-02T18:59:43.390Z,29.63
2019-05-02T19:02:09.740Z,29.59
2019-05-02T19:04:39.566Z,29.59
2019-05-02T19:07:02.945Z,29.55
2019-05-02T19:09:30.458Z,29.63
2019-05-02T19:12:05.034Z,29.59
2019-05-02T19:14:25.098Z,29.53
2019-05-02T19:16:47.877Z,29.47
2019-05-02T19:21:40.562Z,29.69
2019-05-02T19:24:06.916Z,29.71
2019-05-02T19:26:33.256Z,29.70
2019-05-02T19:28:59.594Z,29.77
2019-05-02T19:31:25.922Z,29.75
2019-05-02T19:33:52.759Z,29.79
2019-05-02T19:36:24.473Z,29.90
2019-05-02T19:38:44.997Z,29.92
2019-05-02T19:41:11.710Z,29.98
2019-05-02T19:43:40.476Z,29.95
2019-05-02T19:46:03.982Z,29.99
2019-05-02T19:48:33.126Z,30.05
2019-05-02T19:50:56.666Z,30.13
2019-05-02T19:53:23.081Z,30.13
2019-05-02T19:55:49.326Z,30.01
2019-05-02T19:58:15.652Z,30.06
2019-05-02T20:00:46.068Z,30.12
2019-05-02T20:03:08.357Z,29.98
2019-05-02T20:05:34.650Z,30.01
2019-05-02T20:08:02.532Z,30.11
2019-05-02T20:12:53.940Z,30.12
2019-05-02T20:15:25.431Z,30.15
2019-05-02T20:17:46.721Z,30.07
2019-05-02T20:20:13.052Z,30.14
2019-05-02T20:22:40.942Z,30.19
2019-05-02T20:25:05.792Z,30.11
2019-05-02T20:27:32.994Z,30.30
2019-05-02T20:29:58.470Z,30.22
2019-05-02T20:32:24.796Z,30.23
2019-05-02T20:34:51.131Z,30.27
2019-05-02T20:37:17.554Z,30.30
2019-05-02T20:39:43.906Z,30.36
2019-05-02T20:42:11.982Z,30.37
2019-05-02T20:44:36.551Z,30.37
2019-05-02T20:47:02.992Z,30.40
2019-05-02T20:49:29.332Z,30.40
2019-05-02T20:51:55.667Z,30.46
2019-05-02T20:54:22.033Z,30.43
2019-05-02T20:56:48.370Z,30.44
2019-05-02T20:59:14.823Z,30.50
2019-05-02T21:01:42.899Z,30.52
2019-05-02T21:04:07.472Z,30.61
2019-05-02T21:06:40.812Z,30.66
2019-05-02T21:09:02.173Z,30.62
2019-05-02T21:11:26.582Z,30.59
2019-05-02T21:13:53.015Z,30.67
2019-05-02T21:16:19.316Z,30.68
2019-05-02T21:18:45.663Z,30.62
2019-05-02T21:21:12.615Z,30.70
2019-05-02T21:23:44.835Z,30.66
2019-05-02T21:26:04.738Z,30.53
2019-05-02T21:28:32.145Z,30.67
2019-05-02T21:30:57.507Z,30.73
2019-05-02T21:33:23.835Z,30.61
2019-05-02T21:38:16.454Z,30.74
2019-05-02T21:40:42.831Z,30.79
2019-05-02T21:43:09.159Z,30.71
2019-05-02T21:45:35.492Z,30.85
2019-05-02T21:48:02.293Z,30.77
2019-05-02T21:50:28.151Z,30.90
2019-05-02T21:52:54.508Z,30.81
2019-05-02T21:55:21.731Z,30.89
2019-05-02T22:00:13.576Z,30.82
2019-05-02T22:02:39.932Z,30.92
2019-05-02T22:05:06.312Z,30.88
2019-05-02T22:07:32.642Z,30.97
2019-05-02T22:09:59.020Z,31.02
2019-05-02T22:12:25.321Z,31.02
2019-05-02T22:14:52.874Z,31.08
2019-05-02T22:17:18.005Z,31.08
2019-05-02T22:19:44.327Z,31.06
2019-05-02T22:22:12.205Z,31.08
2019-05-02T22:24:37.025Z,31.05
2019-05-02T22:27:03.375Z,31.08
2019-05-02T22:29:29.708Z,31.17
2019-05-02T22:31:56.048Z,31.17
2019-05-02T22:34:22.389Z,31.29
2019-05-02T22:36:48.742Z,31.27
2019-05-02T22:39:15.085Z,31.27
2019-05-02T22:41:41.968Z,31.25
2019-05-02T22:44:07.805Z,31.31
2019-05-02T22:46:34.180Z,31.41
2019-05-02T22:49:02.340Z,31.29
2019-05-02T22:51:26.943Z,31.33
2019-05-02T22:56:19.648Z,31.33
2019-05-02T22:58:45.988Z,31.36
2019-05-02T23:01:12.326Z,31.30
2019-05-02T23:03:38.657Z,31.35
2019-05-02T23:06:05.001Z,31.28
2019-05-02T23:08:31.342Z,31.44
2019-05-02T23:10:57.757Z,31.46
2019-05-02T23:13:24.687Z,31.46
2019-05-02T23:15:52.069Z,31.49
2019-05-02T23:18:16.728Z,31.36
2019-05-02T23:20:43.225Z,31.57
2019-05-02T23:23:09.554Z,31.60
2019-05-02T23:25:36.024Z,31.53
2019-05-02T23:28:02.524Z,31.53
2019-05-02T23:30:28.682Z,31.49
2019-05-02T23:32:55.016Z,31.52
2019-05-02T23:35:21.383Z,31.55
2019-05-02T23:40:14.197Z,31.69
2019-05-02T23:42:41.724Z,31.55
2019-05-02T23:45:07.023Z,31.64
2019-05-02T23:47:33.384Z,31.67
2019-05-02T23:49:59.723Z,31.65
2019-05-02T23:52:26.052Z,31.66
2019-05-02T23:54:52.683Z,31.73
2019-05-02T23:57:18.741Z,31.84
2019-05-02T23:59:45.129Z,31.71
